Time;durP1;ratioP1;P1;durP2;ratioP2;P2;SDS_P1;SDS_P2;PMS_P1;PMS_P2;Temp;Humidity;BMP_temperature;BMP_pressure;BME280_temperature;BME280_humidity;BME280_pressure;Samples;Min_cycle;Max_cycle;Signal;HPM_P1;HPM_P2
2023/05/24 00:02:40;;;;;;;7.07;4.05;;;;;;;;;;6325834;22;20275;-91
2023/05/24 00:05:46;;;;;;;9.45;5.57;;;;;;;;;;6322773;22;20165;-93
2023/05/24 00:08:53;;;;;;;8.48;4.78;;;;;;;;;;6322691;22;20190;-90
2023/05/24 00:11:59;;;;;;;14.43;4.63;;;;;;;;;;6323561;22;20141;-92
2023/05/24 00:15:05;;;;;;;8.35;4.85;;;;;;;;;;6322786;22;20216;-91
2023/05/24 00:18:45;;;;;;;6.55;4.10;;;;;;;;;;6322134;22;20166;-91
2023/05/24 00:21:50;;;;;;;8.02;4.20;;;;;;;;;;6320609;22;20162;-91
2023/05/24 00:24:57;;;;;;;8.60;4.05;;;;;;;;;;6321442;22;20154;-90
2023/05/24 00:28:02;;;;;;;6.63;3.97;;;;;;;;;;6306467;22;20226;-91
2023/05/24 00:31:08;;;;;;;8.18;4.25;;;;;;;;;;6325528;22;20287;-92
2023/05/24 00:34:13;;;;;;;8.38;3.92;;;;;;;;;;6326308;22;20181;-90
2023/05/24 00:37:18;;;;;;;6.95;4.25;;;;;;;;;;6326474;22;20250;-91
2023/05/24 00:40:25;;;;;;;8.40;4.18;;;;;;;;;;6325486;22;20149;-90
2023/05/24 00:43:30;;;;;;;7.75;4.20;;;;;;;;;;6323487;22;20193;-95
2023/05/24 00:46:36;;;;;;;7.95;4.05;;;;;;;;;;6307242;22;20176;-94
2023/05/24 00:49:41;;;;;;;5.88;3.78;;;;;;;;;;6306638;22;20189;-91
2023/05/24 00:52:48;;;;;;;8.98;4.50;;;;;;;;;;6305477;22;20169;-92
2023/05/24 00:55:55;;;;;;;7.05;3.58;;;;;;;;;;6324043;22;20169;-90
2023/05/24 00:59:00;;;;;;;6.60;3.80;;;;;;;;;;6323481;22;20166;-90
2023/05/24 01:02:06;;;;;;;7.05;4.18;;;;;;;;;;6324767;22;20172;-90
2023/05/24 01:05:12;;;;;;;6.82;4.35;;;;;;;;;;6325080;22;20247;-92
2023/05/24 01:08:24;;;;;;;6.75;4.03;;;;;;;;;;6324044;22;20221;-92
2023/05/24 01:11:38;;;;;;;8.52;4.30;;;;;;;;;;6324411;22;20161;-91
2023/05/24 01:14:49;;;;;;;6.18;4.03;;;;;;;;;;6325018;22;20619;-92
2023/05/24 01:18:00;;;;;;;10.70;4.63;;;;;;;;;;6324770;22;20149;-92
2023/05/24 01:21:16;;;;;;;6.38;3.75;;;;;;;;;;6325389;22;20162;-91
2023/05/24 01:24:26;;;;;;;6.93;4.18;;;;;;;;;;6324387;22;20192;-90
2023/05/24 01:27:34;;;;;;;6.40;3.80;;;;;;;;;;6325236;22;20619;-92
2023/05/24 01:30:41;;;;;;;7.47;4.22;;;;;;;;;;6323033;22;20177;-90
2023/05/24 01:33:47;;;;;;;8.32;4.20;;;;;;;;;;6324089;22;20180;-92
2023/05/24 01:36:57;;;;;;;9.18;4.35;;;;;;;;;;6323824;22;20224;-92
2023/05/24 01:40:03;;;;;;;8.85;4.07;;;;;;;;;;6322864;22;20173;-93
2023/05/24 01:43:15;;;;;;;6.70;4.05;;;;;;;;;;6324179;22;20200;-92
2023/05/24 01:46:26;;;;;;;6.15;3.97;;;;;;;;;;6324464;22;20222;-91
2023/05/24 01:49:35;;;;;;;7.70;4.03;;;;;;;;;;6323532;22;20193;-91
2023/05/24 01:52:44;;;;;;;7.65;3.88;;;;;;;;;;6324481;22;20176;-90
2023/05/24 01:55:50;;;;;;;7.35;4.30;;;;;;;;;;6332088;22;20184;-92
2023/05/24 01:58:56;;;;;;;7.22;4.45;;;;;;;;;;6332404;22;20241;-93
2023/05/24 02:02:03;;;;;;;7.78;4.07;;;;;;;;;;6309185;22;20193;-93
2023/05/24 02:05:10;;;;;;;9.57;4.28;;;;;;;;;;6326174;22;20173;-91
2023/05/24 02:08:15;;;;;;;6.72;4.53;;;;;;;;;;6321927;22;20165;-93
2023/05/24 02:11:21;;;;;;;6.15;3.95;;;;;;;;;;6322963;22;20161;-91
2023/05/24 02:14:26;;;;;;;6.47;3.95;;;;;;;;;;6323376;22;20237;-92
2023/05/24 02:17:34;;;;;;;6.22;4.07;;;;;;;;;;6321699;22;20245;-91
2023/05/24 02:20:40;;;;;;;8.30;4.53;;;;;;;;;;6322669;22;20149;-93
2023/05/24 02:24:12;;;;;;;7.22;4.10;;;;;;;;;;6323370;22;20192;-93
2023/05/24 02:27:19;;;;;;;6.65;3.92;;;;;;;;;;6323685;22;20149;-90
2023/05/24 02:30:25;;;;;;;7.90;3.78;;;;;;;;;;6323174;22;20165;-94
2023/05/24 02:33:32;;;;;;;6.15;3.80;;;;;;;;;;6324783;22;20161;-94
2023/05/24 02:36:37;;;;;;;7.57;3.90;;;;;;;;;;6325167;22;20222;-92
2023/05/24 02:39:42;;;;;;;6.50;3.58;;;;;;;;;;6325222;22;20197;-92
2023/05/24 02:42:47;;;;;;;8.63;4.22;;;;;;;;;;6326836;22;20149;-92
2023/05/24 02:45:53;;;;;;;7.85;3.33;;;;;;;;;;6323618;22;20212;-93
2023/05/24 02:48:59;;;;;;;9.15;3.97;;;;;;;;;;6324284;22;20199;-93
2023/05/24 02:52:05;;;;;;;5.50;3.60;;;;;;;;;;6324282;22;20160;-90
2023/05/24 02:55:11;;;;;;;6.10;4.22;;;;;;;;;;6324439;22;20165;-91
2023/05/24 02:58:17;;;;;;;7.30;4.07;;;;;;;;;;6324767;22;20166;-91
2023/05/24 03:01:25;;;;;;;6.03;3.72;;;;;;;;;;6306978;22;20165;-91
2023/05/24 03:04:33;;;;;;;9.25;3.95;;;;;;;;;;6325831;22;20193;-95
2023/05/24 03:07:38;;;;;;;7.22;3.97;;;;;;;;;;6325090;22;20235;-91
2023/05/24 03:10:44;;;;;;;11.05;4.13;;;;;;;;;;6308065;22;20188;-92
2023/05/24 03:13:50;;;;;;;14.10;3.95;;;;;;;;;;6324661;22;20215;-92
2023/05/24 03:16:56;;;;;;;8.15;4.20;;;;;;;;;;6324360;22;20245;-92
2023/05/24 03:20:04;;;;;;;6.25;3.90;;;;;;;;;;6326030;22;20176;-93
2023/05/24 03:23:13;;;;;;;4.75;3.72;;;;;;;;;;6323780;22;20227;-93
2023/05/24 03:26:19;;;;;;;8.48;4.00;;;;;;;;;;6324530;22;20177;-93
2023/05/24 03:29:24;;;;;;;6.22;3.70;;;;;;;;;;6324402;22;20168;-91
2023/05/24 03:32:31;;;;;;;8.10;3.78;;;;;;;;;;6324344;22;20145;-92
2023/05/24 03:35:38;;;;;;;6.53;3.60;;;;;;;;;;6324708;22;20161;-92
2023/05/24 03:38:43;;;;;;;7.60;3.50;;;;;;;;;;6325212;22;20196;-93
2023/05/24 03:41:48;;;;;;;4.65;3.22;;;;;;;;;;6324992;22;20177;-91
2023/05/24 03:44:54;;;;;;;5.38;3.17;;;;;;;;;;6323155;22;20242;-91
2023/05/24 03:47:59;;;;;;;6.68;3.50;;;;;;;;;;6306815;22;20145;-92
2023/05/24 03:51:08;;;;;;;5.25;3.30;;;;;;;;;;6325230;22;20545;-92
2023/05/24 03:54:13;;;;;;;8.38;3.78;;;;;;;;;;6304522;22;20174;-91
2023/05/24 03:57:21;;;;;;;9.85;4.00;;;;;;;;;;6296425;22;20177;-90
2023/05/24 04:00:26;;;;;;;5.38;3.38;;;;;;;;;;6321335;22;20158;-89
2023/05/24 04:03:32;;;;;;;5.93;3.50;;;;;;;;;;6324835;22;20207;-91
2023/05/24 04:06:40;;;;;;;4.57;3.20;;;;;;;;;;6322787;22;20284;-94
2023/05/24 04:09:46;;;;;;;8.35;3.10;;;;;;;;;;6323753;22;20227;-90
2023/05/24 04:12:52;;;;;;;4.72;3.10;;;;;;;;;;6324114;22;20173;-91
2023/05/24 04:15:57;;;;;;;4.82;3.38;;;;;;;;;;6322591;22;20187;-92
2023/05/24 04:19:03;;;;;;;4.15;3.00;;;;;;;;;;6324844;22;20145;-91
2023/05/24 04:22:26;;;;;;;7.53;3.20;;;;;;;;;;6324675;22;20161;-92
2023/05/24 04:25:32;;;;;;;6.15;3.30;;;;;;;;;;6323493;22;20596;-90
2023/05/24 04:28:38;;;;;;;8.02;3.25;;;;;;;;;;6306419;22;20224;-91
2023/05/24 04:31:44;;;;;;;4.60;3.00;;;;;;;;;;6324481;22;20172;-91
2023/05/24 04:34:51;;;;;;;4.88;3.50;;;;;;;;;;6327268;22;20227;-91
2023/05/24 04:37:58;;;;;;;8.07;3.20;;;;;;;;;;6325546;22;20172;-92
2023/05/24 04:41:04;;;;;;;5.00;3.05;;;;;;;;;;6310091;22;20169;-92
2023/05/24 04:44:10;;;;;;;3.97;3.00;;;;;;;;;;6324823;22;20196;-92
2023/05/24 04:47:16;;;;;;;11.15;3.47;;;;;;;;;;6325589;22;20233;-89
2023/05/24 04:50:21;;;;;;;4.97;3.13;;;;;;;;;;6325574;22;20211;-92
2023/05/24 04:53:28;;;;;;;4.75;3.28;;;;;;;;;;6325259;22;20169;-90
2023/05/24 04:56:34;;;;;;;4.72;2.72;;;;;;;;;;6324353;22;20169;-94
2023/05/24 04:59:39;;;;;;;5.10;3.33;;;;;;;;;;6323620;22;20196;-90
2023/05/24 05:02:47;;;;;;;7.88;3.03;;;;;;;;;;6325134;22;20180;-93
2023/05/24 05:05:53;;;;;;;5.72;3.20;;;;;;;;;;6326379;22;20173;-93
2023/05/24 05:08:59;;;;;;;7.00;3.08;;;;;;;;;;6323483;22;20161;-94
2023/05/24 05:12:06;;;;;;;5.20;2.75;;;;;;;;;;6325200;22;20229;-91
2023/05/24 05:18:31;;;;;;;4.30;2.65;;;;;;;;;;6329755;22;20180;-92
2023/05/24 23:16:27;;;;;;;15.73;6.93;;;;;;;;;;6249824;22;20210;-92
2023/05/24 23:19:33;;;;;;;14.80;7.43;;;;;;;;;;6327474;22;20223;-91
2023/05/24 23:22:39;;;;;;;12.85;6.65;;;;;;;;;;6327294;22;20184;-92
2023/05/24 23:25:44;;;;;;;12.88;6.65;;;;;;;;;;6329364;22;20219;-91
2023/05/24 23:52:19;;;;;;;18.27;7.65;;;;;;;;;;6280345;22;20236;-91
2023/05/24 23:55:25;;;;;;;15.95;7.05;;;;;;;;;;6340288;22;20214;-91
2023/05/24 23:58:32;;;;;;;16.85;6.22;;;;;;;;;;6339333;22;20144;-92
